sensor_id;sensor_type;location;lat;lon;timestamp;P1;durP1;ratioP1;P2;durP2;ratioP2
75993;SDS011;64680;53.800;9.988;2023-05-10T00:01:11;4.60;;;2.50;;
75993;SDS011;64680;53.800;9.988;2023-05-10T00:03:36;6.07;;;2.80;;
75993;SDS011;64680;53.800;9.988;2023-05-10T00:06:02;4.85;;;3.17;;
75993;SDS011;64680;53.800;9.988;2023-05-10T00:08:28;5.13;;;3.05;;
75993;SDS011;64680;53.800;9.988;2023-05-10T00:10:53;5.63;;;2.60;;
75993;SDS011;64680;53.800;9.988;2023-05-10T00:13:19;3.53;;;2.40;;
75993;SDS011;64680;53.800;9.988;2023-05-10T00:15:46;5.07;;;3.05;;
75993;SDS011;64680;53.800;9.988;2023-05-10T00:18:11;5.68;;;2.78;;
75993;SDS011;64680;53.800;9.988;2023-05-10T00:20:37;4.20;;;2.70;;
75993;SDS011;64680;53.800;9.988;2023-05-10T00:23:02;4.85;;;2.92;;
75993;SDS011;64680;53.800;9.988;2023-05-10T00:25:28;3.53;;;2.88;;
75993;SDS011;64680;53.800;9.988;2023-05-10T00:27:54;4.82;;;3.33;;
75993;SDS011;64680;53.800;9.988;2023-05-10T00:30:23;4.15;;;3.40;;
75993;SDS011;64680;53.800;9.988;2023-05-10T00:32:48;4.75;;;2.95;;
75993;SDS011;64680;53.800;9.988;2023-05-10T00:35:14;7.65;;;3.17;;
75993;SDS011;64680;53.800;9.988;2023-05-10T00:37:41;5.97;;;3.30;;
75993;SDS011;64680;53.800;9.988;2023-05-10T00:40:07;4.05;;;2.58;;
75993;SDS011;64680;53.800;9.988;2023-05-10T00:42:33;5.75;;;2.90;;
75993;SDS011;64680;53.800;9.988;2023-05-10T00:44:58;5.30;;;3.70;;
75993;SDS011;64680;53.800;9.988;2023-05-10T00:47:24;4.00;;;2.75;;
75993;SDS011;64680;53.800;9.988;2023-05-10T00:49:49;6.03;;;3.45;;
75993;SDS011;64680;53.800;9.988;2023-05-10T00:52:15;3.83;;;3.00;;
75993;SDS011;64680;53.800;9.988;2023-05-10T00:54:41;5.60;;;3.05;;
75993;SDS011;64680;53.800;9.988;2023-05-10T00:57:07;5.13;;;2.92;;
75993;SDS011;64680;53.800;9.988;2023-05-10T00:59:33;4.03;;;2.90;;
75993;SDS011;64680;53.800;9.988;2023-05-10T01:01:58;4.90;;;2.88;;
75993;SDS011;64680;53.800;9.988;2023-05-10T01:04:24;6.55;;;3.25;;
75993;SDS011;64680;53.800;9.988;2023-05-10T01:06:53;3.78;;;2.72;;
75993;SDS011;64680;53.800;9.988;2023-05-10T01:09:19;5.60;;;2.60;;
75993;SDS011;64680;53.800;9.988;2023-05-10T01:11:46;5.97;;;2.75;;
75993;SDS011;64680;53.800;9.988;2023-05-10T01:14:13;5.22;;;2.53;;
75993;SDS011;64680;53.800;9.988;2023-05-10T01:16:41;6.72;;;2.80;;
75993;SDS011;64680;53.800;9.988;2023-05-10T01:32:49;6.30;;;2.80;;
75993;SDS011;64680;53.800;9.988;2023-05-10T01:37:52;7.63;;;3.67;;
75993;SDS011;64680;53.800;9.988;2023-05-10T01:40:38;6.57;;;3.13;;
75993;SDS011;64680;53.800;9.988;2023-05-10T01:43:13;4.60;;;2.78;;
75993;SDS011;64680;53.800;9.988;2023-05-10T01:45:54;7.60;;;3.00;;
75993;SDS011;64680;53.800;9.988;2023-05-10T01:48:35;3.90;;;2.58;;
75993;SDS011;64680;53.800;9.988;2023-05-10T01:51:05;5.03;;;3.00;;
75993;SDS011;64680;53.800;9.988;2023-05-10T01:53:32;4.18;;;3.05;;
75993;SDS011;64680;53.800;9.988;2023-05-10T01:56:02;4.40;;;2.65;;
75993;SDS011;64680;53.800;9.988;2023-05-10T01:58:30;5.00;;;3.70;;
75993;SDS011;64680;53.800;9.988;2023-05-10T02:03:25;5.15;;;3.30;;
75993;SDS011;64680;53.800;9.988;2023-05-10T02:05:53;4.63;;;3.38;;
75993;SDS011;64680;53.800;9.988;2023-05-10T02:08:21;3.88;;;2.80;;
75993;SDS011;64680;53.800;9.988;2023-05-10T02:10:47;4.63;;;2.95;;
75993;SDS011;64680;53.800;9.988;2023-05-10T02:13:16;7.75;;;3.03;;
75993;SDS011;64680;53.800;9.988;2023-05-10T02:15:42;5.55;;;2.88;;
75993;SDS011;64680;53.800;9.988;2023-05-10T02:18:12;5.97;;;3.58;;
75993;SDS011;64680;53.800;9.988;2023-05-10T02:20:40;4.78;;;3.08;;
75993;SDS011;64680;53.800;9.988;2023-05-10T02:23:06;5.07;;;3.05;;
75993;SDS011;64680;53.800;9.988;2023-05-10T02:25:34;4.43;;;3.33;;
75993;SDS011;64680;53.800;9.988;2023-05-10T02:28:02;5.68;;;3.17;;
75993;SDS011;64680;53.800;9.988;2023-05-10T02:32:56;4.88;;;3.20;;
75993;SDS011;64680;53.800;9.988;2023-05-10T02:35:23;3.95;;;3.28;;
75993;SDS011;64680;53.800;9.988;2023-05-10T02:37:51;3.88;;;3.13;;
75993;SDS011;64680;53.800;9.988;2023-05-10T02:40:17;6.00;;;3.15;;
75993;SDS011;64680;53.800;9.988;2023-05-10T02:42:46;5.38;;;2.88;;
75993;SDS011;64680;53.800;9.988;2023-05-10T02:45:15;3.90;;;2.97;;
75993;SDS011;64680;53.800;9.988;2023-05-10T02:47:44;4.38;;;2.75;;
75993;SDS011;64680;53.800;9.988;2023-05-10T02:50:10;5.03;;;3.22;;
75993;SDS011;64680;53.800;9.988;2023-05-10T02:52:54;6.03;;;3.17;;
75993;SDS011;64680;53.800;9.988;2023-05-10T02:55:30;5.78;;;2.83;;
75993;SDS011;64680;53.800;9.988;2023-05-10T02:58:00;4.95;;;2.78;;
75993;SDS011;64680;53.800;9.988;2023-05-10T03:00:27;4.03;;;3.05;;
75993;SDS011;64680;53.800;9.988;2023-05-10T03:02:53;4.65;;;3.45;;
75993;SDS011;64680;53.800;9.988;2023-05-10T03:05:19;4.05;;;2.92;;
75993;SDS011;64680;53.800;9.988;2023-05-10T03:07:45;4.68;;;3.17;;
75993;SDS011;64680;53.800;9.988;2023-05-10T03:10:11;6.13;;;3.00;;
75993;SDS011;64680;53.800;9.988;2023-05-10T03:15:27;5.07;;;3.30;;
75993;SDS011;64680;53.800;9.988;2023-05-10T03:20:43;4.32;;;3.00;;
75993;SDS011;64680;53.800;9.988;2023-05-10T03:23:17;4.72;;;3.17;;
75993;SDS011;64680;53.800;9.988;2023-05-10T03:25:52;4.03;;;3.20;;
75993;SDS011;64680;53.800;9.988;2023-05-10T03:28:18;4.78;;;3.38;;
75993;SDS011;64680;53.800;9.988;2023-05-10T03:30:45;4.03;;;3.20;;
75993;SDS011;64680;53.800;9.988;2023-05-10T03:33:11;6.85;;;3.10;;
75993;SDS011;64680;53.800;9.988;2023-05-10T03:35:38;6.07;;;3.47;;
75993;SDS011;64680;53.800;9.988;2023-05-10T03:38:04;5.95;;;3.03;;
75993;SDS011;64680;53.800;9.988;2023-05-10T03:40:29;6.20;;;3.20;;
75993;SDS011;64680;53.800;9.988;2023-05-10T03:42:56;6.43;;;3.55;;
75993;SDS011;64680;53.800;9.988;2023-05-10T03:45:23;5.50;;;3.03;;
75993;SDS011;64680;53.800;9.988;2023-05-10T03:47:48;5.95;;;3.13;;
75993;SDS011;64680;53.800;9.988;2023-05-10T03:50:14;5.13;;;3.58;;
75993;SDS011;64680;53.800;9.988;2023-05-10T03:52:39;4.00;;;3.20;;
75993;SDS011;64680;53.800;9.988;2023-05-10T03:55:06;3.72;;;3.03;;
75993;SDS011;64680;53.800;9.988;2023-05-10T03:57:32;7.47;;;3.53;;
75993;SDS011;64680;53.800;9.988;2023-05-10T03:59:58;4.60;;;3.17;;
75993;SDS011;64680;53.800;9.988;2023-05-10T04:02:24;6.00;;;3.53;;
75993;SDS011;64680;53.800;9.988;2023-05-10T04:04:49;5.25;;;3.42;;
75993;SDS011;64680;53.800;9.988;2023-05-10T04:07:15;4.70;;;3.67;;
75993;SDS011;64680;53.800;9.988;2023-05-10T04:09:41;5.95;;;3.80;;
75993;SDS011;64680;53.800;9.988;2023-05-10T04:12:07;4.63;;;3.05;;
75993;SDS011;64680;53.800;9.988;2023-05-10T04:14:32;6.32;;;3.33;;
75993;SDS011;64680;53.800;9.988;2023-05-10T04:16:58;6.70;;;3.50;;
75993;SDS011;64680;53.800;9.988;2023-05-10T04:19:24;4.85;;;3.75;;
75993;SDS011;64680;53.800;9.988;2023-05-10T04:21:53;5.47;;;3.47;;
75993;SDS011;64680;53.800;9.988;2023-05-10T04:24:19;6.10;;;3.40;;
75993;SDS011;64680;53.800;9.988;2023-05-10T04:26:44;5.78;;;3.45;;
75993;SDS011;64680;53.800;9.988;2023-05-10T04:29:10;5.47;;;3.60;;
75993;SDS011;64680;53.800;9.988;2023-05-10T04:31:36;4.28;;;3.03;;
75993;SDS011;64680;53.800;9.988;2023-05-10T04:34:01;4.63;;;3.20;;
75993;SDS011;64680;53.800;9.988;2023-05-10T04:36:27;3.88;;;3.33;;
75993;SDS011;64680;53.800;9.988;2023-05-10T04:38:53;5.50;;;3.38;;
75993;SDS011;64680;53.800;9.988;2023-05-10T04:41:19;8.98;;;3.78;;
75993;SDS011;64680;53.800;9.988;2023-05-10T04:43:45;5.68;;;3.50;;
75993;SDS011;64680;53.800;9.988;2023-05-10T04:46:11;4.78;;;3.13;;
75993;SDS011;64680;53.800;9.988;2023-05-10T04:48:37;5.85;;;3.30;;
75993;SDS011;64680;53.800;9.988;2023-05-10T04:51:02;4.18;;;3.30;;
75993;SDS011;64680;53.800;9.988;2023-05-10T04:53:29;5.35;;;3.35;;
75993;SDS011;64680;53.800;9.988;2023-05-10T04:55:54;5.15;;;3.40;;
75993;SDS011;64680;53.800;9.988;2023-05-10T04:58:20;4.75;;;3.28;;
75993;SDS011;64680;53.800;9.988;2023-05-10T05:00:45;6.03;;;3.95;;
75993;SDS011;64680;53.800;9.988;2023-05-10T05:03:11;4.82;;;3.60;;
75993;SDS011;64680;53.800;9.988;2023-05-10T05:05:37;5.60;;;3.38;;
75993;SDS011;64680;53.800;9.988;2023-05-10T05:08:02;6.35;;;3.63;;
75993;SDS011;64680;53.800;9.988;2023-05-10T05:10:28;5.07;;;3.28;;
75993;SDS011;64680;53.800;9.988;2023-05-10T05:12:54;4.10;;;3.20;;
75993;SDS011;64680;53.800;9.988;2023-05-10T05:15:20;4.97;;;3.50;;
75993;SDS011;64680;53.800;9.988;2023-05-10T05:17:46;5.60;;;3.38;;
75993;SDS011;64680;53.800;9.988;2023-05-10T05:20:12;4.40;;;3.17;;
75993;SDS011;64680;53.800;9.988;2023-05-10T05:22:38;4.45;;;3.28;;
75993;SDS011;64680;53.800;9.988;2023-05-10T05:25:03;4.93;;;3.03;;
75993;SDS011;64680;53.800;9.988;2023-05-10T05:27:30;4.80;;;3.45;;
75993;SDS011;64680;53.800;9.988;2023-05-10T05:29:56;4.57;;;3.67;;
75993;SDS011;64680;53.800;9.988;2023-05-10T05:32:23;4.50;;;3.53;;
75993;SDS011;64680;53.800;9.988;2023-05-10T05:34:49;4.38;;;3.05;;
75993;SDS011;64680;53.800;9.988;2023-05-10T05:37:16;5.45;;;3.33;;
75993;SDS011;64680;53.800;9.988;2023-05-10T05:42:09;5.93;;;3.33;;
75993;SDS011;64680;53.800;9.988;2023-05-10T05:44:35;4.63;;;2.75;;
75993;SDS011;64680;53.800;9.988;2023-05-10T05:47:01;5.93;;;3.47;;
75993;SDS011;64680;53.800;9.988;2023-05-10T05:49:26;4.80;;;3.25;;
75993;SDS011;64680;53.800;9.988;2023-05-10T05:51:52;4.15;;;3.10;;
75993;SDS011;64680;53.800;9.988;2023-05-10T05:54:18;4.80;;;3.97;;
75993;SDS011;64680;53.800;9.988;2023-05-10T05:56:43;4.63;;;3.17;;
75993;SDS011;64680;53.800;9.988;2023-05-10T05:59:09;5.13;;;3.28;;
75993;SDS011;64680;53.800;9.988;2023-05-10T06:01:35;5.00;;;3.42;;
75993;SDS011;64680;53.800;9.988;2023-05-10T06:04:01;4.28;;;3.60;;
75993;SDS011;64680;53.800;9.988;2023-05-10T06:06:26;3.78;;;3.25;;
75993;SDS011;64680;53.800;9.988;2023-05-10T06:08:52;4.53;;;3.03;;
75993;SDS011;64680;53.800;9.988;2023-05-10T06:11:18;5.25;;;3.30;;
75993;SDS011;64680;53.800;9.988;2023-05-10T06:13:44;6.80;;;3.00;;
75993;SDS011;64680;53.800;9.988;2023-05-10T06:16:12;4.65;;;3.38;;
75993;SDS011;64680;53.800;9.988;2023-05-10T06:18:38;4.82;;;3.15;;
75993;SDS011;64680;53.800;9.988;2023-05-10T06:21:04;4.93;;;3.13;;
75993;SDS011;64680;53.800;9.988;2023-05-10T06:23:29;5.18;;;3.33;;
75993;SDS011;64680;53.800;9.988;2023-05-10T06:25:55;6.57;;;3.10;;
75993;SDS011;64680;53.800;9.988;2023-05-10T06:28:22;5.40;;;3.03;;
75993;SDS011;64680;53.800;9.988;2023-05-10T06:30:47;5.10;;;3.42;;
75993;SDS011;64680;53.800;9.988;2023-05-10T06:33:13;4.47;;;2.92;;
75993;SDS011;64680;53.800;9.988;2023-05-10T06:35:39;5.88;;;3.40;;
75993;SDS011;64680;53.800;9.988;2023-05-10T06:38:05;3.88;;;2.85;;
75993;SDS011;64680;53.800;9.988;2023-05-10T06:40:31;4.38;;;2.78;;
75993;SDS011;64680;53.800;9.988;2023-05-10T06:42:57;3.58;;;3.08;;
75993;SDS011;64680;53.800;9.988;2023-05-10T06:45:23;4.78;;;3.70;;
75993;SDS011;64680;53.800;9.988;2023-05-10T06:47:48;4.63;;;3.10;;
75993;SDS011;64680;53.800;9.988;2023-05-10T06:50:14;4.15;;;2.97;;
75993;SDS011;64680;53.800;9.988;2023-05-10T06:52:40;5.07;;;3.17;;
75993;SDS011;64680;53.800;9.988;2023-05-10T06:55:06;5.65;;;3.17;;
75993;SDS011;64680;53.800;9.988;2023-05-10T06:57:32;4.57;;;3.10;;
75993;SDS011;64680;53.800;9.988;2023-05-10T07:00:00;4.80;;;3.45;;
75993;SDS011;64680;53.800;9.988;2023-05-10T07:02:29;5.28;;;3.15;;
75993;SDS011;64680;53.800;9.988;2023-05-10T07:04:54;5.50;;;3.42;;
75993;SDS011;64680;53.800;9.988;2023-05-10T07:07:20;5.05;;;3.00;;
75993;SDS011;64680;53.800;9.988;2023-05-10T07:09:46;5.07;;;3.08;;
75993;SDS011;64680;53.800;9.988;2023-05-10T07:12:11;3.60;;;3.10;;
75993;SDS011;64680;53.800;9.988;2023-05-10T07:14:37;4.22;;;3.10;;
75993;SDS011;64680;53.800;9.988;2023-05-10T07:17:03;3.72;;;3.05;;
75993;SDS011;64680;53.800;9.988;2023-05-10T07:19:28;3.90;;;3.00;;
75993;SDS011;64680;53.800;9.988;2023-05-10T07:21:54;7.80;;;3.28;;
75993;SDS011;64680;53.800;9.988;2023-05-10T07:24:20;3.67;;;3.08;;
75993;SDS011;64680;53.800;9.988;2023-05-10T07:26:46;4.82;;;2.78;;
75993;SDS011;64680;53.800;9.988;2023-05-10T07:29:11;3.42;;;2.88;;
75993;SDS011;64680;53.800;9.988;2023-05-10T07:31:37;5.30;;;3.10;;
75993;SDS011;64680;53.800;9.988;2023-05-10T07:34:03;4.75;;;3.03;;
75993;SDS011;64680;53.800;9.988;2023-05-10T07:36:28;4.82;;;2.95;;
75993;SDS011;64680;53.800;9.988;2023-05-10T07:38:54;4.68;;;3.55;;
75993;SDS011;64680;53.800;9.988;2023-05-10T07:41:19;4.00;;;2.78;;
75993;SDS011;64680;53.800;9.988;2023-05-10T07:43:46;4.20;;;2.97;;
75993;SDS011;64680;53.800;9.988;2023-05-10T07:46:11;3.80;;;3.03;;
75993;SDS011;64680;53.800;9.988;2023-05-10T07:48:37;6.25;;;3.05;;
75993;SDS011;64680;53.800;9.988;2023-05-10T07:51:02;5.32;;;3.10;;
75993;SDS011;64680;53.800;9.988;2023-05-10T07:53:28;3.65;;;2.97;;
75993;SDS011;64680;53.800;9.988;2023-05-10T07:55:54;4.72;;;2.80;;
75993;SDS011;64680;53.800;9.988;2023-05-10T07:58:23;4.63;;;3.03;;
75993;SDS011;64680;53.800;9.988;2023-05-10T08:00:49;5.28;;;3.13;;
75993;SDS011;64680;53.800;9.988;2023-05-10T08:03:15;3.22;;;2.92;;
75993;SDS011;64680;53.800;9.988;2023-05-10T08:05:41;3.75;;;2.80;;
75993;SDS011;64680;53.800;9.988;2023-05-10T08:08:06;3.95;;;3.50;;
75993;SDS011;64680;53.800;9.988;2023-05-10T08:10:32;4.75;;;3.08;;
75993;SDS011;64680;53.800;9.988;2023-05-10T08:12:58;4.00;;;2.83;;
75993;SDS011;64680;53.800;9.988;2023-05-10T08:15:24;4.47;;;3.13;;
75993;SDS011;64680;53.800;9.988;2023-05-10T08:17:51;4.22;;;3.10;;
75993;SDS011;64680;53.800;9.988;2023-05-10T08:20:16;4.10;;;2.92;;
75993;SDS011;64680;53.800;9.988;2023-05-10T08:22:44;5.03;;;3.22;;
75993;SDS011;64680;53.800;9.988;2023-05-10T08:25:10;3.95;;;3.17;;
75993;SDS011;64680;53.800;9.988;2023-05-10T08:27:35;5.28;;;3.28;;
75993;SDS011;64680;53.800;9.988;2023-05-10T08:30:01;3.97;;;2.72;;
75993;SDS011;64680;53.800;9.988;2023-05-10T08:32:27;3.50;;;3.20;;
75993;SDS011;64680;53.800;9.988;2023-05-10T08:34:52;5.38;;;3.35;;
75993;SDS011;64680;53.800;9.988;2023-05-10T08:37:18;4.50;;;3.30;;
75993;SDS011;64680;53.800;9.988;2023-05-10T08:39:44;4.07;;;3.15;;
75993;SDS011;64680;53.800;9.988;2023-05-10T08:42:12;4.00;;;3.28;;
75993;SDS011;64680;53.800;9.988;2023-05-10T08:44:44;5.05;;;3.10;;
75993;SDS011;64680;53.800;9.988;2023-05-10T08:47:13;5.50;;;3.30;;
75993;SDS011;64680;53.800;9.988;2023-05-10T08:49:41;4.22;;;3.47;;
75993;SDS011;64680;53.800;9.988;2023-05-10T08:52:07;5.45;;;3.30;;
75993;SDS011;64680;53.800;9.988;2023-05-10T08:54:34;3.88;;;3.28;;
75993;SDS011;64680;53.800;9.988;2023-05-10T08:57:00;5.05;;;3.47;;
75993;SDS011;64680;53.800;9.988;2023-05-10T08:59:26;3.72;;;3.33;;
75993;SDS011;64680;53.800;9.988;2023-05-10T09:01:52;4.45;;;3.38;;
75993;SDS011;64680;53.800;9.988;2023-05-10T09:04:20;3.65;;;2.67;;
75993;SDS011;64680;53.800;9.988;2023-05-10T09:06:46;5.95;;;3.60;;
75993;SDS011;64680;53.800;9.988;2023-05-10T09:09:12;4.22;;;3.17;;
75993;SDS011;64680;53.800;9.988;2023-05-10T09:11:38;5.22;;;3.75;;
75993;SDS011;64680;53.800;9.988;2023-05-10T09:14:04;6.00;;;3.58;;
75993;SDS011;64680;53.800;9.988;2023-05-10T09:16:29;3.13;;;2.78;;
75993;SDS011;64680;53.800;9.988;2023-05-10T09:18:55;4.13;;;3.20;;
75993;SDS011;64680;53.800;9.988;2023-05-10T09:21:21;4.07;;;3.08;;
75993;SDS011;64680;53.800;9.988;2023-05-10T09:23:47;4.95;;;3.42;;
75993;SDS011;64680;53.800;9.988;2023-05-10T09:26:14;5.25;;;3.70;;
75993;SDS011;64680;53.800;9.988;2023-05-10T09:28:57;5.47;;;3.78;;
75993;SDS011;64680;53.800;9.988;2023-05-10T09:31:24;4.28;;;3.45;;
75993;SDS011;64680;53.800;9.988;2023-05-10T09:34:07;11.88;;;3.92;;
75993;SDS011;64680;53.800;9.988;2023-05-10T09:36:33;7.88;;;4.30;;
75993;SDS011;64680;53.800;9.988;2023-05-10T09:38:58;4.22;;;3.28;;
75993;SDS011;64680;53.800;9.988;2023-05-10T09:41:25;3.97;;;3.58;;
75993;SDS011;64680;53.800;9.988;2023-05-10T09:43:54;4.85;;;3.38;;
75993;SDS011;64680;53.800;9.988;2023-05-10T09:46:21;4.28;;;3.15;;
75993;SDS011;64680;53.800;9.988;2023-05-10T09:48:47;4.07;;;3.35;;
75993;SDS011;64680;53.800;9.988;2023-05-10T09:51:23;4.90;;;3.67;;
75993;SDS011;64680;53.800;9.988;2023-05-10T09:54:11;4.05;;;3.10;;
75993;SDS011;64680;53.800;9.988;2023-05-10T09:56:41;4.72;;;3.50;;
75993;SDS011;64680;53.800;9.988;2023-05-10T09:59:10;4.10;;;3.70;;
75993;SDS011;64680;53.800;9.988;2023-05-10T10:01:36;6.45;;;3.80;;
75993;SDS011;64680;53.800;9.988;2023-05-10T10:04:06;3.95;;;3.42;;
75993;SDS011;64680;53.800;9.988;2023-05-10T10:06:37;4.75;;;4.13;;
75993;SDS011;64680;53.800;9.988;2023-05-10T10:09:05;5.40;;;4.20;;
75993;SDS011;64680;53.800;9.988;2023-05-10T10:11:31;5.05;;;3.75;;
75993;SDS011;64680;53.800;9.988;2023-05-10T10:13:59;5.25;;;3.95;;
75993;SDS011;64680;53.800;9.988;2023-05-10T10:16:25;5.50;;;4.38;;
75993;SDS011;64680;53.800;9.988;2023-05-10T10:18:55;4.80;;;3.65;;
75993;SDS011;64680;53.800;9.988;2023-05-10T10:21:21;5.57;;;3.70;;
75993;SDS011;64680;53.800;9.988;2023-05-10T10:23:47;5.28;;;3.95;;
75993;SDS011;64680;53.800;9.988;2023-05-10T10:26:13;5.43;;;3.47;;
75993;SDS011;64680;53.800;9.988;2023-05-10T10:33:54;4.75;;;4.22;;
75993;SDS011;64680;53.800;9.988;2023-05-10T10:36:24;6.20;;;4.28;;
75993;SDS011;64680;53.800;9.988;2023-05-10T10:41:34;8.60;;;4.90;;
75993;SDS011;64680;53.800;9.988;2023-05-10T10:49:24;6.35;;;5.10;;
75993;SDS011;64680;53.800;9.988;2023-05-10T10:54:57;8.25;;;5.88;;
75993;SDS011;64680;53.800;9.988;2023-05-10T10:57:25;8.38;;;5.57;;
75993;SDS011;64680;53.800;9.988;2023-05-10T10:59:51;9.75;;;6.70;;
75993;SDS011;64680;53.800;9.988;2023-05-10T11:02:43;10.65;;;6.38;;
75993;SDS011;64680;53.800;9.988;2023-05-10T11:10:37;8.70;;;7.07;;
75993;SDS011;64680;53.800;9.988;2023-05-10T11:13:04;10.63;;;7.75;;
75993;SDS011;64680;53.800;9.988;2023-05-10T11:15:32;9.80;;;7.43;;
75993;SDS011;64680;53.800;9.988;2023-05-10T11:17:59;10.90;;;7.40;;
75993;SDS011;64680;53.800;9.988;2023-05-10T11:20:40;12.55;;;8.02;;
75993;SDS011;64680;53.800;9.988;2023-05-10T11:23:12;9.80;;;7.47;;
75993;SDS011;64680;53.800;9.988;2023-05-10T11:25:43;10.60;;;7.60;;
75993;SDS011;64680;53.800;9.988;2023-05-10T11:28:13;9.85;;;7.65;;
75993;SDS011;64680;53.800;9.988;2023-05-10T11:30:41;11.48;;;7.95;;
75993;SDS011;64680;53.800;9.988;2023-05-10T11:33:09;10.52;;;6.97;;
75993;SDS011;64680;53.800;9.988;2023-05-10T11:35:40;10.38;;;7.55;;
75993;SDS011;64680;53.800;9.988;2023-05-10T11:38:06;9.20;;;6.90;;
75993;SDS011;64680;53.800;9.988;2023-05-10T11:40:36;9.90;;;7.68;;
75993;SDS011;64680;53.800;9.988;2023-05-10T11:43:02;10.10;;;7.38;;
75993;SDS011;64680;53.800;9.988;2023-05-10T11:45:29;10.90;;;7.32;;
75993;SDS011;64680;53.800;9.988;2023-05-10T11:47:58;10.88;;;8.10;;
75993;SDS011;64680;53.800;9.988;2023-05-10T11:50:25;10.40;;;7.88;;
75993;SDS011;64680;53.800;9.988;2023-05-10T11:52:54;11.85;;;7.65;;
75993;SDS011;64680;53.800;9.988;2023-05-10T11:55:21;8.93;;;7.43;;
75993;SDS011;64680;53.800;9.988;2023-05-10T11:57:47;10.93;;;7.90;;
75993;SDS011;64680;53.800;9.988;2023-05-10T12:00:16;8.23;;;6.70;;
75993;SDS011;64680;53.800;9.988;2023-05-10T12:02:42;10.75;;;8.20;;
75993;SDS011;64680;53.800;9.988;2023-05-10T12:05:08;11.43;;;8.88;;
75993;SDS011;64680;53.800;9.988;2023-05-10T12:07:34;9.90;;;7.82;;
75993;SDS011;64680;53.800;9.988;2023-05-10T12:10:04;8.85;;;7.57;;
75993;SDS011;64680;53.800;9.988;2023-05-10T12:12:37;10.80;;;8.07;;
75993;SDS011;64680;53.800;9.988;2023-05-10T12:15:22;8.77;;;7.40;;
75993;SDS011;64680;53.800;9.988;2023-05-10T12:17:49;11.27;;;8.77;;
75993;SDS011;64680;53.800;9.988;2023-05-10T12:20:26;10.60;;;8.43;;
75993;SDS011;64680;53.800;9.988;2023-05-10T12:22:53;11.05;;;8.02;;
75993;SDS011;64680;53.800;9.988;2023-05-10T12:27:50;10.63;;;7.45;;
75993;SDS011;64680;53.800;9.988;2023-05-10T12:30:24;10.07;;;7.80;;
75993;SDS011;64680;53.800;9.988;2023-05-10T12:32:51;11.18;;;7.63;;
75993;SDS011;64680;53.800;9.988;2023-05-10T12:35:17;11.63;;;9.10;;
75993;SDS011;64680;53.800;9.988;2023-05-10T12:37:47;10.25;;;8.40;;
75993;SDS011;64680;53.800;9.988;2023-05-10T12:40:13;11.70;;;8.40;;
75993;SDS011;64680;53.800;9.988;2023-05-10T12:42:39;12.27;;;8.13;;
75993;SDS011;64680;53.800;9.988;2023-05-10T12:45:05;11.40;;;8.75;;
75993;SDS011;64680;53.800;9.988;2023-05-10T12:47:32;11.35;;;8.57;;
75993;SDS011;64680;53.800;9.988;2023-05-10T12:49:59;11.30;;;8.35;;
75993;SDS011;64680;53.800;9.988;2023-05-10T12:52:26;10.00;;;7.63;;
75993;SDS011;64680;53.800;9.988;2023-05-10T12:54:52;11.13;;;8.18;;
75993;SDS011;64680;53.800;9.988;2023-05-10T12:57:18;12.38;;;9.15;;
75993;SDS011;64680;53.800;9.988;2023-05-10T12:59:47;11.20;;;8.43;;
75993;SDS011;64680;53.800;9.988;2023-05-10T13:02:13;9.73;;;7.30;;
75993;SDS011;64680;53.800;9.988;2023-05-10T13:04:39;10.82;;;8.43;;
75993;SDS011;64680;53.800;9.988;2023-05-10T13:07:07;12.18;;;9.48;;
75993;SDS011;64680;53.800;9.988;2023-05-10T13:09:32;10.10;;;8.52;;
75993;SDS011;64680;53.800;9.988;2023-05-10T13:11:58;8.85;;;7.22;;
75993;SDS011;64680;53.800;9.988;2023-05-10T13:14:24;9.63;;;7.07;;
75993;SDS011;64680;53.800;9.988;2023-05-10T13:16:50;9.95;;;7.25;;
75993;SDS011;64680;53.800;9.988;2023-05-10T13:19:16;10.07;;;7.88;;
75993;SDS011;64680;53.800;9.988;2023-05-10T13:21:42;8.40;;;5.97;;
75993;SDS011;64680;53.800;9.988;2023-05-10T13:24:09;7.95;;;6.45;;
75993;SDS011;64680;53.800;9.988;2023-05-10T13:26:35;7.63;;;6.10;;
75993;SDS011;64680;53.800;9.988;2023-05-10T13:29:02;7.03;;;5.43;;
75993;SDS011;64680;53.800;9.988;2023-05-10T13:31:28;7.03;;;5.00;;
75993;SDS011;64680;53.800;9.988;2023-05-10T13:33:53;8.15;;;5.30;;
75993;SDS011;64680;53.800;9.988;2023-05-10T13:36:19;7.43;;;5.68;;
75993;SDS011;64680;53.800;9.988;2023-05-10T13:38:45;8.45;;;6.65;;
75993;SDS011;64680;53.800;9.988;2023-05-10T13:41:11;7.65;;;6.30;;
75993;SDS011;64680;53.800;9.988;2023-05-10T13:43:36;8.40;;;6.72;;
75993;SDS011;64680;53.800;9.988;2023-05-10T13:46:02;8.25;;;6.82;;
75993;SDS011;64680;53.800;9.988;2023-05-10T13:48:28;8.48;;;7.13;;
75993;SDS011;64680;53.800;9.988;2023-05-10T13:50:53;6.53;;;5.78;;
75993;SDS011;64680;53.800;9.988;2023-05-10T13:53:19;6.32;;;5.47;;
75993;SDS011;64680;53.800;9.988;2023-05-10T13:55:45;6.97;;;5.55;;
75993;SDS011;64680;53.800;9.988;2023-05-10T13:58:12;9.23;;;6.68;;
75993;SDS011;64680;53.800;9.988;2023-05-10T14:00:37;6.28;;;4.75;;
75993;SDS011;64680;53.800;9.988;2023-05-10T14:03:03;8.32;;;5.28;;
75993;SDS011;64680;53.800;9.988;2023-05-10T14:05:30;5.95;;;4.57;;
75993;SDS011;64680;53.800;9.988;2023-05-10T14:07:55;5.57;;;4.60;;
75993;SDS011;64680;53.800;9.988;2023-05-10T14:10:22;5.78;;;5.05;;
75993;SDS011;64680;53.800;9.988;2023-05-10T14:12:47;5.75;;;4.97;;
75993;SDS011;64680;53.800;9.988;2023-05-10T14:15:13;6.07;;;4.80;;
75993;SDS011;64680;53.800;9.988;2023-05-10T14:17:38;5.10;;;4.60;;
75993;SDS011;64680;53.800;9.988;2023-05-10T14:20:04;5.75;;;4.25;;
75993;SDS011;64680;53.800;9.988;2023-05-10T14:22:30;5.07;;;4.28;;
75993;SDS011;64680;53.800;9.988;2023-05-10T14:24:56;6.10;;;4.97;;
75993;SDS011;64680;53.800;9.988;2023-05-10T14:27:22;5.03;;;4.05;;
75993;SDS011;64680;53.800;9.988;2023-05-10T14:29:48;6.05;;;5.07;;
75993;SDS011;64680;53.800;9.988;2023-05-10T14:32:13;6.53;;;4.97;;
75993;SDS011;64680;53.800;9.988;2023-05-10T14:34:39;5.80;;;5.15;;
75993;SDS011;64680;53.800;9.988;2023-05-10T14:37:04;6.70;;;4.90;;
75993;SDS011;64680;53.800;9.988;2023-05-10T14:39:30;5.95;;;4.65;;
75993;SDS011;64680;53.800;9.988;2023-05-10T14:41:56;6.05;;;4.88;;
75993;SDS011;64680;53.800;9.988;2023-05-10T14:44:22;5.63;;;5.03;;
75993;SDS011;64680;53.800;9.988;2023-05-10T14:46:48;5.93;;;4.78;;
75993;SDS011;64680;53.800;9.988;2023-05-10T14:49:14;4.82;;;4.30;;
75993;SDS011;64680;53.800;9.988;2023-05-10T14:51:40;4.40;;;3.97;;
75993;SDS011;64680;53.800;9.988;2023-05-10T14:54:06;7.38;;;5.28;;
75993;SDS011;64680;53.800;9.988;2023-05-10T14:56:31;5.68;;;4.25;;
75993;SDS011;64680;53.800;9.988;2023-05-10T14:58:57;5.40;;;4.30;;
75993;SDS011;64680;53.800;9.988;2023-05-10T15:01:23;5.45;;;4.22;;
75993;SDS011;64680;53.800;9.988;2023-05-10T15:03:49;5.28;;;4.00;;
75993;SDS011;64680;53.800;9.988;2023-05-10T15:06:15;5.93;;;3.90;;
75993;SDS011;64680;53.800;9.988;2023-05-10T15:08:41;4.85;;;3.53;;
75993;SDS011;64680;53.800;9.988;2023-05-10T15:11:07;5.75;;;4.75;;
75993;SDS011;64680;53.800;9.988;2023-05-10T15:13:32;5.70;;;4.80;;
75993;SDS011;64680;53.800;9.988;2023-05-10T15:15:58;5.05;;;4.15;;
75993;SDS011;64680;53.800;9.988;2023-05-10T15:18:23;5.38;;;4.43;;
75993;SDS011;64680;53.800;9.988;2023-05-10T15:20:49;4.57;;;3.90;;
75993;SDS011;64680;53.800;9.988;2023-05-10T15:23:15;5.05;;;3.80;;
75993;SDS011;64680;53.800;9.988;2023-05-10T15:25:40;5.22;;;4.03;;
75993;SDS011;64680;53.800;9.988;2023-05-10T15:28:06;4.80;;;4.30;;
75993;SDS011;64680;53.800;9.988;2023-05-10T15:30:32;5.53;;;4.68;;
75993;SDS011;64680;53.800;9.988;2023-05-10T15:32:57;6.18;;;5.05;;
75993;SDS011;64680;53.800;9.988;2023-05-10T15:35:23;6.03;;;4.97;;
75993;SDS011;64680;53.800;9.988;2023-05-10T15:37:48;6.88;;;5.40;;